• Join FlightAware (Why Join?)
  • Login
  • US Flag 
11:51PM EDT


 

Airport Tracker/Info


-or-


 

Live Flight TrackerFlight Track Log ✈ DAL268 ✈ 08-May-2013 ✈ KJFK - LLBG / TLV

Flight Track Log - Related Links

Times and Time Zones

All times are in EDT time to prevent confusion due to time zone crossing. See the DAL268 flight status page for this flight to view local times or setup timezone preferences in your user account.

Time Position Orientation Groundspeed Altitude Reporting Facility
EDT Latitude Longitude Course Direction KTS MPH feet Rate Location/Type
11:56PM 40.6230 -73.7850 90° East 174 200 400  Level FlightAware
11:57PM 40.6050 -73.7990 211° Southwest 178 205 1,200 1,500 Climbing FlightAware
11:57PM 40.5840 -73.8160 212° Southwest 208 239 1,800 1,200 Climbing FlightAware
11:58PM 40.5570 -73.8400 214° Southwest 237 273 2,400 1,260 Climbing FlightAware
11:58PM 40.5300 -73.8510 197° South 257 296 3,000 1,800 Climbing FlightAware
11:59PM 40.4960 -73.8430 170° South 272 313 4,100 2,220 Climbing FlightAware
11:59PM 40.4800 -73.8280 145° Southeast 280 322 4,700 2,640 Climbing FlightAware
11:59PM 40.4720 -73.8140 127° Southeast 283 326 5,200 2,880 Climbing FlightAware
11:59PM 40.4650 -73.7920 113° Southeast 286 329 5,900 2,580 Climbing FlightAware
12:00AM 40.4620 -73.7690 100° East 295 339 6,500 2,820 Climbing FlightAware
12:00AM 40.4710 -73.7180 77° East 306 352 7,800 2,700 Climbing FlightAware
12:01AM 40.4900 -73.6670 64° Northeast 312 359 9,000 2,280 Climbing FlightAware
12:01AM 40.5040 -73.5830 78° East 323 372 10,700 1,800 Climbing FlightAware
12:02AM 40.5130 -73.4980 82° East 356 410 11,600 900 Climbing FlightAware
12:03AM 40.5220 -73.4080 82° East 402 463 11,900 1,320 Climbing FlightAware
12:03AM 40.5320 -73.3000 83° East 414 476 13,500 2,160 Climbing FlightAware
12:04AM 40.5420 -73.1960 83° East 424 488 15,000 2,160 Climbing FlightAware
12:05AM 40.5530 -73.0770 83° East 436 502 16,600 1,920 Climbing FlightAware
12:05AM 40.5700 -72.9740 78° East 450 518 17,800 1,800 Climbing FlightAware
12:06AM 40.5960 -72.8680 72° East 461 531 19,000 1,740 Climbing FlightAware
12:07AM 40.6270 -72.7480 71° East 468 539 20,300 1,620 Climbing FlightAware
12:08AM 40.6530 -72.6470 71° East 475 547 21,300 1,620 Climbing FlightAware
12:08AM 40.6830 -72.5280 72° East 481 554 22,500 1,500 Climbing FlightAware
12:09AM 40.7140 -72.4070 71° East 489 563 23,500 1,380 Climbing FlightAware
12:10AM 40.7430 -72.2900 72° East 495 570 24,500 1,380 Climbing FlightAware
12:10AM 40.7760 -72.1570 72° East 501 577 25,500 1,380 Climbing FlightAware
12:11AM 40.8160 -72.0000 71° East 505 581 26,800 1,320 Climbing FlightAware
12:12AM 40.8660 -71.8870 60° Northeast 517 595 27,600 1,320 Climbing FlightAware
12:13AM 40.9340 -71.7980 45° Northeast 519 597 28,700 1,320 Climbing FlightAware
12:13AM 41.0120 -71.7020 43° Northeast 520 598 29,500 1,260 Climbing FlightAware
12:14AM 41.0900 -71.6040 43° Northeast 517 595 30,500 1,020 Climbing FlightAware
12:15AM 41.1600 -71.5180 43° Northeast 517 595 31,000 360 Climbing FlightAware
12:15AM 41.2290 -71.4310 43° Northeast 514 592 31,000  Level FlightAware
12:16AM 41.3070 -71.3330 43° Northeast 513 590 31,000  Level FlightAware
12:17AM 41.3660 -71.2590 43° Northeast 511 588 31,000  Level FlightAware
12:18AM 41.4530 -71.1460 44° Northeast 508 585 31,000  Level FlightAware
12:18AM 41.5190 -71.0640 43° Northeast 501 577 31,000 60 Level FlightAware
12:19AM 41.5870 -70.9780 43° Northeast 500 575 31,100 420 Climbing FlightAware
12:20AM 41.6630 -70.8790 44° Northeast 494 568 31,600 660 Climbing FlightAware
12:20AM 41.7310 -70.7930 43° Northeast 496 571 32,100 720 Climbing FlightAware
12:21AM 41.7860 -70.7220 44° Northeast 496 571 32,500 600 Climbing FlightAware
12:21AM 41.8350 -70.6570 45° Northeast 498 573 32,800 420 Climbing FlightAware
12:22AM 41.8990 -70.5720 45° Northeast 500 575 33,000 120 Climbing FlightAware
12:23AM 41.9620 -70.4880 45° Northeast 505 581 33,000  Level FlightAware
12:24AM 42.0430 -70.3820 44° Northeast 500 575 33,000  Level FlightAware
12:24AM 42.1100 -70.2910 45° Northeast 500 575 33,000  Level FlightAware
12:25AM 42.1840 -70.1930 44° Northeast 506 582 33,000  Level FlightAware
12:26AM 42.2520 -70.1010 45° Northeast 501 577 33,000  Level FlightAware
12:26AM 42.3180 -70.0120 45° Northeast 507 583 33,000  Level FlightAware
12:27AM 42.3900 -69.9150 45° Northeast 502 578 33,000  Level FlightAware
12:28AM 42.4550 -69.8250 46° Northeast 505 581 33,000  Level FlightAware
12:28AM 42.5260 -69.7290 45° Northeast 508 585 33,000  Level FlightAware
12:29AM 42.6010 -69.6280 45° Northeast 510 587 33,000  Level FlightAware
12:30AM 42.6570 -69.5500 46° Northeast 511 588 33,000  Level FlightAware
12:31AM 42.7440 -69.4290 46° Northeast 513 590 33,000  Level FlightAware
12:31AM 42.8120 -69.3360 45° Northeast 514 592 33,000  Level FlightAware
12:32AM 42.8800 -69.2420 45° Northeast 516 594 33,000  Level FlightAware
12:33AM 42.9580 -69.1340 45° Northeast 516 594 33,000  Level FlightAware
12:33AM 43.0220 -69.0450 45° Northeast 517 595 33,000  Level FlightAware
12:34AM 43.0850 -68.9550 46° Northeast 517 595 33,000  Level FlightAware
12:35AM 43.1590 -68.8520 45° Northeast 517 595 33,000  Level FlightAware
12:35AM 43.2330 -68.7480 46° Northeast 517 595 33,000  Level FlightAware
12:36AM 43.2980 -68.6560 46° Northeast 517 595 33,000  Level FlightAware
12:37AM 43.3850 -68.5310 46° Northeast 517 595 33,000  Level FlightAware
12:38AM 43.4600 -68.4240 46° Northeast 514 592 33,000  Level FlightAware
12:38AM 43.5160 -68.3440 46° Northeast 514 592 33,000  Level FlightAware
12:40AM 43.6630 -68.1330 46° Northeast 33,000  Level FlightAware
12:41AM 43.7520 -68.0030 47° Northeast 519 597 33,000  Level FlightAware
12:41AM 43.8170 -67.9090 46° Northeast 517 595 33,000 -540 Level FlightAware
12:42AM 43.8920 -67.7990 47° Northeast 519 597 32,300 -1,080 Descending FlightAware
12:43AM 43.9570 -67.7040 46° Northeast 519 597 31,500 -1,020 Descending FlightAware
12:43AM 44.0250 -67.6060 46° Northeast 513 590 31,000 -360 Descending FlightAware
12:44AM 44.0970 -67.5000 47° Northeast 514 592 31,000  Level FlightAware
12:45AM 44.1610 -67.4040 47° Northeast 515 593 31,000  Level FlightAware
12:45AM 44.2360 -67.2940 46° Northeast 517 595 31,000  Level FlightAware
12:46AM 44.3020 -67.1940 47° Northeast 519 597 31,000  Level FlightAware
12:47AM 44.3770 -67.0840 46° Northeast 522 601 31,000  Level FlightAware
12:48AM 44.4410 -66.9870 47° Northeast 523 602 31,000  Level FlightAware
12:48AM 44.5090 -66.8850 47° Northeast 522 601 31,000  Level FlightAware
12:49AM 44.6230 -66.7120 47° Northeast 518 596 31,000  Level FlightAware
12:51AM 44.7370 -66.5390 47° Northeast 512 589 31,000  Level FlightAware
12:52AM 44.8740 -66.3280 47° Northeast 510 587 31,000  Level FlightAware
12:53AM 44.9460 -66.2160 48° Northeast 509 586 31,000  Level FlightAware
12:54AM 45.0980 -65.9800 48° Northeast 507 583 31,000  Level FlightAware
12:55AM 45.2090 -65.8060 48° Northeast 507 583 31,000  Level FlightAware
12:57AM 45.3190 -65.6320 48° Northeast 511 588 31,000  Level FlightAware
12:58AM 45.4410 -65.4390 48° Northeast 511 588 31,000  Level FlightAware
12:59AM 45.5180 -65.3160 48° Northeast 512 589 31,000  Level FlightAware
12:59AM 45.5860 -65.2070 48° Northeast 512 589 31,000  Level FlightAware
01:00AM 45.6590 -65.0890 48° Northeast 511 588 31,000  Level FlightAware
01:01AM 45.7230 -64.9880 48° Northeast 512 589 31,000  Level FlightAware
01:02AM 45.7810 -64.8940 48° Northeast 511 588 31,000  Level FlightAware
01:02AM 45.8490 -64.7830 49° Northeast 510 587 31,000  Level FlightAware
01:03AM 45.9030 -64.6970 48° Northeast 510 587 31,000  Level FlightAware
01:04AM 45.9960 -64.5430 49° Northeast 510 587 31,000  Level FlightAware
01:05AM 46.0490 -64.4570 48° Northeast 510 587 31,000  Level FlightAware
01:06AM 46.1500 -64.2910 49° Northeast 511 588 31,000  Level FlightAware
01:06AM 46.2030 -64.2050 48° Northeast 511 588 31,000  Level FlightAware
01:07AM 46.2570 -64.1190 48° Northeast 511 588 31,000  Level FlightAware
01:08AM 46.3110 -64.0320 48° Northeast 511 588 31,000  Level FlightAware
01:08AM 46.3780 -63.9240 48° Northeast 511 588 31,000  Level FlightAware
01:09AM 46.4320 -63.8370 48° Northeast 511 588 31,000  Level FlightAware
01:10AM 46.4860 -63.7510 48° Northeast 511 588 31,000  Level FlightAware
01:10AM 46.5400 -63.6640 48° Northeast 511 588 31,000  Level FlightAware
01:11AM 46.5930 -63.5770 48° Northeast 511 588 31,000  Level FlightAware
01:12AM 46.6610 -63.4680 48° Northeast 511 588 31,000  Level FlightAware
01:13AM 46.7140 -63.3810 48° Northeast 511 588 31,000  Level FlightAware
01:13AM 46.7680 -63.2940 48° Northeast 511 588 31,000  Level FlightAware
01:14AM 46.8220 -63.2070 48° Northeast 511 588 31,000  Level FlightAware
01:15AM 46.8760 -63.1190 48° Northeast 511 588 31,000 300 Level FlightAware
01:15AM 47.0000 -62.8000 48° Northeast 510 587 31,300 660 Climbing Gander Center
01:15AM 47.0333 -62.7333 54° Northeast 510 587 31,500 480 Climbing Moncton Center
01:16AM 47.1333 -62.5500 51° Northeast 520 598 32,000 540 Climbing Moncton Center
01:17AM 47.2167 -62.4000 51° Northeast 520 598 32,600 480 Climbing Moncton Center
01:18AM 47.3333 -62.2500 41° Northeast 520 598 33,000 180 Climbing Moncton Center
01:19AM 47.4167 -62.0667 56° Northeast 520 598 33,000  Level Moncton Center
01:20AM 47.5000 -61.9000 53° Northeast 520 598 33,000  Level Moncton Center
01:21AM 47.5333 -61.8500 45° Northeast 520 598 33,000  Level Gander Center
01:21AM 47.5667 -61.8000 45° Northeast 510 587 33,000  Level Gander Center
01:21AM 47.5833 -61.7333 70° East 520 598 33,000  Level Moncton Center
01:22AM 47.6833 -61.5667 48° Northeast 520 598 33,000  Level Moncton Center
01:23AM 47.7833 -61.4000 48° Northeast 520 598 33,000  Level Moncton Center
01:24AM 47.8500 -61.2500 56° Northeast 520 598 33,000  Level Moncton Center
01:25AM 47.9500 -61.0667 51° Northeast 520 598 33,000  Level Moncton Center
01:26AM 48.0333 -60.9167 50° Northeast 520 598 33,000  Level Moncton Center
01:27AM 48.1333 -60.7333 51° Northeast 520 598 33,000  Level Moncton Center
01:28AM 48.2167 -60.5500 56° Northeast 520 598 33,000  Level Moncton Center
01:34AM 48.7430 -59.6030 56° Northeast 517 595 33,000  Level FlightAware
01:35AM 48.7920 -59.5070 52° Northeast 517 595 33,000  Level FlightAware
01:35AM 48.8610 -59.3700 53° Northeast 518 596 33,000  Level FlightAware
01:36AM 48.9270 -59.2370 53° Northeast 516 594 33,000  Level FlightAware
01:37AM 48.9800 -59.1300 53° Northeast 516 594 33,000  Level FlightAware
01:38AM 49.0430 -59.0030 53° Northeast 515 593 33,000  Level FlightAware
01:38AM 49.1060 -58.8750 53° Northeast 514 592 33,000  Level FlightAware
01:39AM 49.1620 -58.7620 53° Northeast 513 590 33,000  Level FlightAware
01:40AM 49.2180 -58.6520 52° Northeast 514 592 33,000  Level FlightAware
01:40AM 49.2830 -58.5150 54° Northeast 513 590 33,000  Level FlightAware
01:41AM 49.3470 -58.3840 53° Northeast 513 590 33,000  Level FlightAware
01:42AM 49.4030 -58.2670 54° Northeast 514 592 33,000  Level FlightAware
01:42AM 49.4590 -58.1500 54° Northeast 514 592 33,000  Level FlightAware
01:43AM 49.5220 -58.0160 54° Northeast 516 594 33,000  Level FlightAware
01:44AM 49.5730 -57.8910 58° Northeast 517 595 33,000  Level FlightAware
01:45AM 49.6260 -57.7470 60° Northeast 519 597 33,000  Level FlightAware
01:45AM 49.6730 -57.6140 61° Northeast 521 600 33,000  Level FlightAware
01:46AM 49.7190 -57.4830 61° Northeast 522 601 33,000  Level FlightAware
01:47AM 49.7700 -57.3390 61° Northeast 521 600 33,000  Level FlightAware
01:47AM 49.8170 -57.2040 62° Northeast 523 602 33,000  Level FlightAware
01:48AM 49.8680 -57.0590 61° Northeast 524 603 33,000  Level FlightAware
01:49AM 49.9140 -56.9260 62° Northeast 525 604 33,000  Level FlightAware
01:49AM 49.9600 -56.7940 62° Northeast 526 605 33,000  Level FlightAware
01:50AM 50.0000 -56.6740 63° Northeast 526 605 33,000  Level FlightAware
01:51AM 50.0510 -56.5230 62° Northeast 526 605 33,000  Level FlightAware
01:51AM 50.0960 -56.3930 62° Northeast 526 605 33,000  Level FlightAware
01:52AM 50.1470 -56.2390 63° Northeast 525 604 33,000  Level FlightAware
01:53AM 50.1910 -56.1080 62° Northeast 526 605 33,000  Level FlightAware
01:53AM 50.2370 -55.9700 62° Northeast 525 604 33,000  Level FlightAware
01:54AM 50.2860 -55.8220 63° Northeast 524 603 33,000  Level FlightAware
01:55AM 50.3300 -55.6870 63° Northeast 523 602 33,000  Level FlightAware
01:56AM 50.3730 -55.5560 63° Northeast 522 601 33,000  Level FlightAware
01:56AM 50.4240 -55.4010 63° Northeast 522 601 33,000  Level FlightAware
01:57AM 50.4680 -55.2660 63° Northeast 522 601 33,000  Level FlightAware
01:58AM 50.5170 -55.1110 64° Northeast 522 601 33,000  Level FlightAware
01:58AM 50.5600 -54.9790 63° Northeast 523 602 33,000  Level FlightAware
01:59AM 50.6000 -54.8530 63° Northeast 524 603 33,000  Level FlightAware
02:00AM 50.6420 -54.7200 63° Northeast 525 604 33,000  Level FlightAware
02:00AM 50.6960 -54.5520 63° Northeast 524 603 33,000  Level FlightAware
02:01AM 50.7340 -54.4290 64° Northeast 524 603 33,000  Level FlightAware
02:02AM 50.7850 -54.2640 64° Northeast 524 603 33,000  Level FlightAware
02:03AM 50.8460 -54.0740 63° Northeast 524 603 33,000  Level FlightAware
02:03AM 50.8830 -53.9570 63° Northeast 524 603 33,000  Level FlightAware
02:04AM 50.9210 -53.8410 63° Northeast 524 603 33,000  Level FlightAware
02:05AM 50.9580 -53.7240 63° Northeast 524 603 33,000  Level FlightAware
02:06AM 51.0050 -53.5790 63° Northeast 524 603 33,000  Level FlightAware
02:06AM 51.0420 -53.4620 63° Northeast 524 603 33,000  Level FlightAware
02:07AM 51.0800 -53.3450 63° Northeast 524 603 33,000  Level FlightAware
02:08AM 51.1170 -53.2280 63° Northeast 524 603 33,000  Level FlightAware
02:08AM 51.1550 -53.1110 63° Northeast 524 603 33,000  Level FlightAware
02:09AM 51.2010 -52.9640 63° Northeast 524 603 33,000  Level FlightAware
02:10AM 51.2390 -52.8470 63° Northeast 524 603 33,000  Level FlightAware
02:10AM 51.2760 -52.7300 63° Northeast 524 603 33,000  Level FlightAware
02:11AM 51.3140 -52.6120 63° Northeast 524 603 33,000  Level FlightAware
02:12AM 51.3510 -52.4950 63° Northeast 524 603 33,000  Level FlightAware
02:12AM 51.4333 -52.0167 63° Northeast 520 598 33,000  Level Moncton Center
02:13AM 51.4667 -51.9000 65° Northeast 520 598 33,000  Level Gander Center
02:14AM 51.5167 -51.7000 68° East 520 598 33,000  Level Gander Center
02:15AM 51.5500 -51.5500 70° East 520 598 33,000  Level Gander Center
02:16AM 51.6167 -51.3167 65° Northeast 520 598 33,000  Level Gander Center
02:16AM 51.6333 -51.2667 62° Northeast 520 598 33,000  Level Gander Center
02:17AM 51.6667 -51.1167 70° East 510 587 33,000  Level Gander Center
02:17AM 51.6833 -51.0667 62° Northeast 510 587 33,000  Level Gander Center
02:18AM 51.7500 -50.8667 62° Northeast 510 587 33,000  Level Gander Center
02:19AM 51.8167 -50.6333 65° Northeast 520 598 33,000  Level Gander Center
02:20AM 51.8667 -50.4167 69° East 520 598 33,000  Level Gander Center
02:21AM 51.9167 -50.1833 71° East 520 598 33,000  Level Gander Center
02:24AM 52.0281 -49.8054 77° East  Level FlightAware Approximate
02:31AM 52.2357 -48.2823 77° East  Level FlightAware Approximate
02:32AM 52.2638 -48.0636 78° East  Level FlightAware Approximate
02:33AM 52.2915 -47.8446 78° East  Level FlightAware Approximate
02:34AM 52.3187 -47.6253 78° East  Level FlightAware Approximate
02:35AM 52.3455 -47.4058 79° East  Level FlightAware Approximate
02:36AM 52.3720 -47.1860 79° East  Level FlightAware Approximate
02:37AM 52.3980 -46.9660 79° East  Level FlightAware Approximate
02:38AM 52.4236 -46.7456 79° East  Level FlightAware Approximate
02:39AM 52.4488 -46.5251 79° East  Level FlightAware Approximate
02:40AM 52.4736 -46.3042 79° East  Level FlightAware Approximate
02:41AM 52.4980 -46.0832 80° East  Level FlightAware Approximate
02:42AM 52.5219 -45.8619 80° East  Level FlightAware Approximate
02:43AM 52.5455 -45.6403 80° East  Level FlightAware Approximate
02:44AM 52.5686 -45.4185 80° East  Level FlightAware Approximate
02:45AM 52.5914 -45.1965 80° East  Level FlightAware Approximate
02:46AM 52.6137 -44.9743 81° East  Level FlightAware Approximate
02:47AM 52.6356 -44.7518 81° East  Level FlightAware Approximate
02:48AM 52.6571 -44.5291 81° East  Level FlightAware Approximate
02:49AM 52.6781 -44.3062 81° East  Level FlightAware Approximate
02:50AM 52.6988 -44.0831 81° East  Level FlightAware Approximate
02:51AM 52.7190 -43.8597 81° East  Level FlightAware Approximate
02:52AM 52.7388 -43.6362 82° East  Level FlightAware Approximate
02:53AM 52.7582 -43.4125 82° East  Level FlightAware Approximate
02:54AM 52.7771 -43.1886 82° East  Level FlightAware Approximate
02:55AM 52.7957 -42.9644 82° East  Level FlightAware Approximate
02:56AM 52.8138 -42.7401 82° East  Level FlightAware Approximate
02:57AM 52.8315 -42.5156 82° East  Level FlightAware Approximate
02:58AM 52.8487 -42.2910 83° East  Level FlightAware Approximate
02:59AM 52.8656 -42.0661 83° East  Level FlightAware Approximate
03:00AM 52.8820 -41.8411 83° East  Level FlightAware Approximate
03:01AM 52.8980 -41.6159 83° East  Level FlightAware Approximate
03:02AM 52.9136 -41.3905 83° East  Level FlightAware Approximate
03:03AM 52.9287 -41.1650 84° East  Level FlightAware Approximate
03:04AM 52.9434 -40.9393 84° East  Level FlightAware Approximate
03:05AM 52.9577 -40.7135 84° East  Level FlightAware Approximate
03:06AM 52.9716 -40.4875 84° East  Level FlightAware Approximate
03:07AM 52.9850 -40.2614 84° East  Level FlightAware Approximate
03:08AM 52.9980 -40.0351 84° East  Level FlightAware Approximate
03:09AM 53.0079 -39.8084 86° East  Level FlightAware Approximate
03:10AM 53.0169 -39.5815 86° East  Level FlightAware Approximate
03:11AM 53.0254 -39.3545 86° East  Level FlightAware Approximate
03:12AM 53.0335 -39.1274 87° East  Level FlightAware Approximate
03:13AM 53.0411 -38.9002 87° East  Level FlightAware Approximate
03:14AM 53.0484 -38.6730 87° East  Level FlightAware Approximate
03:15AM 53.0551 -38.4456 87° East  Level FlightAware Approximate
03:16AM 53.0615 -38.2183 87° East  Level FlightAware Approximate
03:17AM 53.0674 -37.9908 87° East  Level FlightAware Approximate
03:18AM 53.0729 -37.7633 88° East  Level FlightAware Approximate
03:19AM 53.0780 -37.5357 88° East  Level FlightAware Approximate
03:20AM 53.0826 -37.3081 88° East  Level FlightAware Approximate
03:21AM 53.0868 -37.0804 88° East  Level FlightAware Approximate
03:22AM 53.0905 -36.8527 88° East  Level FlightAware Approximate
03:23AM 53.0939 -36.6250 89° East  Level FlightAware Approximate
03:24AM 53.0968 -36.3972 89° East  Level FlightAware Approximate
03:25AM 53.0992 -36.1694 89° East  Level FlightAware Approximate
03:26AM 53.1012 -35.9415 89° East  Level FlightAware Approximate
03:27AM 53.1028 -35.7137 89° East  Level FlightAware Approximate
03:28AM 53.1040 -35.4858 89° East  Level FlightAware Approximate
03:29AM 53.1047 -35.2579 90° East  Level FlightAware Approximate
03:30AM 53.1049 -35.0300 90° East  Level FlightAware Approximate
03:31AM 53.1048 -34.8022 90° East  Level FlightAware Approximate
03:32AM 53.1042 -34.5743 90° East  Level FlightAware Approximate
03:33AM 53.1031 -34.3464 90° East  Level FlightAware Approximate
03:34AM 53.1017 -34.1186 91° East  Level FlightAware Approximate
03:35AM 53.0998 -33.8907 91° East  Level FlightAware Approximate
03:36AM 53.0974 -33.6629 91° East  Level FlightAware Approximate
03:37AM 53.0947 -33.4351 91° East  Level FlightAware Approximate
03:38AM 53.0915 -33.2074 91° East  Level FlightAware Approximate
03:39AM 53.0878 -32.9796 91° East  Level FlightAware Approximate
03:40AM 53.0838 -32.7519 92° East  Level FlightAware Approximate
03:41AM 53.0792 -32.5243 92° East  Level FlightAware Approximate
03:42AM 53.0743 -32.2967 92° East  Level FlightAware Approximate
03:43AM 53.0689 -32.0692 92° East  Level FlightAware Approximate
03:44AM 53.0631 -31.8417 92° East  Level FlightAware Approximate
03:45AM 53.0569 -31.6143 93° East  Level FlightAware Approximate
03:46AM 53.0502 -31.3870 93° East  Level FlightAware Approximate
03:47AM 53.0431 -31.1597 93° East  Level FlightAware Approximate
03:48AM 53.0355 -30.9325 93° East  Level FlightAware Approximate
03:49AM 53.0276 -30.7054 93° East  Level FlightAware Approximate
03:50AM 53.0191 -30.4784 93° East  Level FlightAware Approximate
03:51AM 53.0103 -30.2514 94° East  Level FlightAware Approximate
03:52AM 53.0010 -30.0246 94° East  Level FlightAware Approximate
03:53AM 52.9883 -29.7983 95° East  Level FlightAware Approximate
03:54AM 52.9748 -29.5722 96° East  Level FlightAware Approximate
03:55AM 52.9609 -29.3462 96° East  Level FlightAware Approximate
03:56AM 52.9465 -29.1204 96° East  Level FlightAware Approximate
03:57AM 52.9317 -28.8947 96° East  Level FlightAware Approximate
03:58AM 52.9165 -28.6692 96° East  Level FlightAware Approximate
03:59AM 52.9008 -28.4438 96° East  Level FlightAware Approximate
04:00AM 52.8848 -28.2186 97° East  Level FlightAware Approximate
04:01AM 52.8683 -27.9936 97° East  Level FlightAware Approximate
04:02AM 52.8513 -27.7687 97° East  Level FlightAware Approximate
04:03AM 52.8340 -27.5441 97° East  Level FlightAware Approximate
04:04AM 52.8162 -27.3196 97° East  Level FlightAware Approximate
04:05AM 52.7980 -27.0953 98° East  Level FlightAware Approximate
04:06AM 52.7794 -26.8711 98° East  Level FlightAware Approximate
04:07AM 52.7603 -26.6472 98° East  Level FlightAware Approximate
04:08AM 52.7409 -26.4235 98° East  Level FlightAware Approximate
04:09AM 52.7210 -26.2000 98° East  Level FlightAware Approximate
04:10AM 52.7007 -25.9767 98° East  Level FlightAware Approximate
04:11AM 52.6800 -25.7535 99° East  Level FlightAware Approximate
04:12AM 52.6588 -25.5306 99° East  Level FlightAware Approximate
04:13AM 52.6373 -25.3080 99° East  Level FlightAware Approximate
04:14AM 52.6153 -25.0855 99° East  Level FlightAware Approximate
04:15AM 52.5929 -24.8633 99° East  Level FlightAware Approximate
04:16AM 52.5701 -24.6413 100° East  Level FlightAware Approximate
04:17AM 52.5469 -24.4195 100° East  Level FlightAware Approximate
04:18AM 52.5233 -24.1980 100° East  Level FlightAware Approximate
04:19AM 52.4992 -23.9767 100° East  Level FlightAware Approximate
04:20AM 52.4740 -23.7484 100° East  Level FlightAware Approximate
04:21AM 52.4486 -23.5204 100° East  Level FlightAware Approximate
04:22AM 52.4230 -23.2925 100° East  Level FlightAware Approximate
04:23AM 52.3970 -23.0650 101° East  Level FlightAware Approximate
04:24AM 52.3705 -22.8377 101° East  Level FlightAware Approximate
04:25AM 52.3436 -22.6106 101° East  Level FlightAware Approximate
04:26AM 52.3162 -22.3839 101° East  Level FlightAware Approximate
04:27AM 52.2884 -22.1574 101° East  Level FlightAware Approximate
04:28AM 52.2602 -21.9312 101° East  Level FlightAware Approximate
04:29AM 52.2315 -21.7053 102° East  Level FlightAware Approximate
04:30AM 52.2025 -21.4797 102° East  Level FlightAware Approximate
04:31AM 52.1730 -21.2544 102° East  Level FlightAware Approximate
04:32AM 52.1430 -21.0294 102° East  Level FlightAware Approximate
04:33AM 52.1126 -20.8047 102° East  Level FlightAware Approximate
04:34AM 52.0818 -20.5804 103° East  Level FlightAware Approximate
04:35AM 52.0506 -20.3563 103° East  Level FlightAware Approximate
04:36AM 52.0190 -20.1325 103° East  Level FlightAware Approximate
04:37AM 51.9876 -19.9173 104° East  Level FlightAware Approximate
04:38AM 51.9551 -19.7027 104° East  Level FlightAware Approximate
04:39AM 51.9222 -19.4885 104° East  Level FlightAware Approximate
04:40AM 51.8889 -19.2745 104° East  Level FlightAware Approximate
04:41AM 51.8552 -19.0609 104° East  Level FlightAware Approximate
04:42AM 51.8211 -18.8476 104° East  Level FlightAware Approximate
04:43AM 51.7868 -18.6345 105° East  Level FlightAware Approximate
04:44AM 51.7522 -18.4217 105° East  Level FlightAware Approximate
04:45AM 51.7173 -18.2093 105° East  Level FlightAware Approximate
04:46AM 51.6820 -17.9972 105° East  Level FlightAware Approximate
04:47AM 51.6463 -17.7854 105° East  Level FlightAware Approximate
04:48AM 51.6102 -17.5739 105° East  Level FlightAware Approximate
04:49AM 51.5737 -17.3628 105° East  Level FlightAware Approximate
04:50AM 51.5369 -17.1520 106° East  Level FlightAware Approximate
04:51AM 51.4997 -16.9416 106° East  Level FlightAware Approximate
04:52AM 51.4619 -16.7315 106° East  Level FlightAware Approximate
04:53AM 51.4238 -16.5219 106° East  Level FlightAware Approximate
04:54AM 51.3852 -16.3126 106° East  Level FlightAware Approximate
04:55AM 51.3463 -16.1036 107° East  Level FlightAware Approximate
04:56AM 51.3070 -15.8951 107° East  Level FlightAware Approximate
04:57AM 51.2673 -15.6868 107° East  Level FlightAware Approximate
04:58AM 51.2273 -15.4790 107° East  Level FlightAware Approximate
04:59AM 51.1869 -15.2715 107° East  Level FlightAware Approximate
05:00AM 51.1461 -15.0644 107° East  Level FlightAware Approximate
05:01AM 51.1066 -14.8568 107° East  Level FlightAware Approximate
05:02AM 51.0674 -14.6492 107° East  Level FlightAware Approximate
05:03AM 51.0279 -14.4420 107° East  Level FlightAware Approximate
05:04AM 50.9862 -14.2361 108° East  Level FlightAware Approximate
05:05AM 50.9433 -14.0309 108° East  Level FlightAware Approximate
05:06AM 50.9001 -13.8261 108° East  Level FlightAware Approximate
05:07AM 50.8565 -13.6217 109° East  Level FlightAware Approximate
05:08AM 50.8125 -13.4177 109° East  Level FlightAware Approximate
05:09AM 50.7685 -13.2140 109° East  Level FlightAware Approximate
05:10AM 50.7245 -13.0104 109° East  Level FlightAware Approximate
05:11AM 50.6801 -12.8071 109° East  Level FlightAware Approximate
05:12AM 50.6355 -12.6043 109° East  Level FlightAware Approximate
05:12AM 50.5860 -10.7380 109° East 523 602 35,000  Level FlightAware
05:13AM 50.5904 -12.4018 109° East  Level FlightAware Approximate
05:13AM 50.5370 -10.6110 121° Southeast 523 602 35,000  Level FlightAware
05:13AM 50.4700 -10.4320 120° Southeast 524 603 35,000  Level FlightAware
05:14AM 50.4240 -10.3110 121° Southeast 525 604 35,000  Level FlightAware
05:15AM 50.3790 -10.1940 121° Southeast 526 605 35,000  Level FlightAware
05:15AM 50.3290 -10.0630 121° Southeast 526 605 35,000  Level FlightAware
05:16AM 50.2560 -9.8750 121° Southeast 525 604 35,000  Level FlightAware
05:17AM 50.2070 -9.7510 122° Southeast 526 605 35,000  Level FlightAware
05:18AM 50.1480 -9.5990 121° Southeast 527 606 35,000  Level FlightAware
05:18AM 50.0970 -9.4700 122° Southeast 527 606 35,000  Level FlightAware
05:19AM 50.0460 -9.3410 122° Southeast 527 606 35,000  Level FlightAware
05:20AM 49.9890 -9.1990 122° Southeast 528 608 35,000  Level FlightAware
05:20AM 49.9370 -9.0710 122° Southeast 528 608 35,000 -1,380 Level FlightAware
05:21AM 49.9007 -8.9769 122° Southeast 500 575 33,500  Descending FlightAware UK
05:21AM 49.8830 -8.9360 122° Southeast 526 605 35,000  Climbing FlightAware
05:22AM 49.8542 -8.8616 122° Southeast 502 578 33,500 -2,520 Descending FlightAware UK
05:22AM 49.8309 -8.8042 122° Southeast 502 578 33,500 4,080 Level FlightAware UK
05:22AM 49.8290 -8.8020 122° Southeast 526 605 35,000  Climbing FlightAware
05:22AM 49.8000 -8.7278 122° Southeast 500 575 33,500 -2,400 Descending FlightAware UK
05:23AM 49.7767 -8.6706 122° Southeast 498 573 33,500 3,600 Level FlightAware UK
05:23AM 49.7700 -8.6560 122° Southeast 524 603 35,000  Climbing FlightAware
05:23AM 49.7457 -8.5946 122° Southeast 494 568 33,500 -2,580 Descending FlightAware UK
05:23AM 49.7224 -8.5376 122° Southeast 494 568 33,500 3,900 Level FlightAware UK
05:23AM 49.7190 -8.5290 122° Southeast 525 604 35,000  Climbing FlightAware
05:24AM 49.6912 -8.4618 122° Southeast 496 571 33,500 -2,460 Descending FlightAware UK
05:24AM 49.6678 -8.4048 122° Southeast 496 571 33,500 3,420 Level FlightAware UK
05:24AM 49.6590 -8.3830 122° Southeast 528 608 35,000  Climbing FlightAware
05:24AM 49.6367 -8.3286 122° Southeast 498 573 33,500 -2,700 Descending FlightAware UK
05:25AM 49.6133 -8.2714 122° Southeast 500 575 33,500 3,720 Level FlightAware UK
05:25AM 49.6100 -8.2650 122° Southeast 529 609 35,000  Climbing FlightAware
05:25AM 49.5817 -8.1952 122° Southeast 502 578 33,500 -2,520 Descending FlightAware UK
05:25AM 49.5579 -8.1381 123° Southeast 502 578 33,500 4,080 Level FlightAware UK
05:25AM 49.5550 -8.1350 123° Southeast 529 609 35,000  Climbing FlightAware
05:26AM 49.5261 -8.0621 123° Southeast 504 580 33,500 -2,400 Descending FlightAware UK
05:26AM 49.5043 -8.0023 119° Southeast 504 580 33,500 3,600 Level FlightAware UK
05:26AM 49.5020 -7.9830 119° Southeast 533 613 35,000  Climbing FlightAware
05:26AM 49.4874 -7.9139 119° Southeast 504 580 33,500 -2,580 Descending FlightAware UK
05:27AM 49.4790 -7.8465 101° East 502 578 33,500 3,900 Level FlightAware UK
05:27AM 49.4770 -7.8330 101° East 535 616 35,000  Climbing FlightAware
05:27AM 49.4665 -7.7570 101° East 502 578 33,500 -2,460 Descending FlightAware UK
05:27AM 49.4574 -7.6902 102° East 504 580 33,500 3,420 Level FlightAware UK
05:28AM 49.4550 -7.6730 102° East 535 616 35,000  Climbing FlightAware
05:28AM 49.4453 -7.6011 102° East 502 578 33,500 -2,700 Descending FlightAware UK
05:28AM 49.4361 -7.5345 102° East 500 575 33,500 3,720 Level FlightAware UK
05:28AM 49.4350 -7.5250 102° East 532 612 35,000  Climbing FlightAware
05:29AM 49.4242 -7.4455 102° East 500 575 33,500 -2,520 Descending FlightAware UK
05:29AM 49.4152 -7.3788 102° East 498 573 33,500 4,080 Level FlightAware UK
05:29AM 49.4140 -7.3700 102° East 531 611 35,000  Climbing FlightAware
05:29AM 49.4031 -7.2902 102° East 496 571 33,500 -2,400 Descending FlightAware UK
05:30AM 49.3937 -7.2240 102° East 498 573 33,500 4,500 Level FlightAware UK
05:30AM 49.3930 -7.2260 102° East 531 611 35,000  Climbing FlightAware
05:30AM 49.3839 -7.1580 102° East 498 573 33,500 -2,700 Descending FlightAware UK
05:30AM 49.3689 -7.0950 110° East 500 575 33,500 3,060 Level FlightAware UK
05:30AM 49.3610 -7.0660 110° East 525 604 35,000  Climbing FlightAware
05:31AM 49.3403 -6.9928 110° East 496 571 33,500 -2,460 Descending FlightAware UK
05:31AM 49.3214 -6.9318 115° Southeast 496 571 33,500 3,420 Level FlightAware UK
05:31AM 49.3170 -6.9210 115° Southeast 524 603 35,000  Climbing FlightAware
05:31AM 49.2967 -6.8513 115° Southeast 496 571 33,500 -2,700 Descending FlightAware UK
05:32AM 49.2781 -6.7910 115° Southeast 494 568 33,500 3,720 Level FlightAware UK
05:32AM 49.2750 -6.7830 115° Southeast 524 603 35,000  Climbing FlightAware
05:32AM 49.2531 -6.7111 115° Southeast 496 571 33,500 -2,520 Descending FlightAware UK
05:32AM 49.2344 -6.6509 115° Southeast 496 571 33,500 4,080 Level FlightAware UK
05:32AM 49.2310 -6.6430 115° Southeast 526 605 35,000  Climbing FlightAware
05:33AM 49.2092 -6.5705 115° Southeast 496 571 33,500 -2,400 Descending FlightAware UK
05:33AM 49.1904 -6.5101 116° Southeast 494 568 33,500 4,500 Level FlightAware UK
05:33AM 49.1910 -6.5150 116° Southeast 526 605 35,000  Climbing FlightAware
05:33AM 49.1715 -6.4497 116° Southeast 496 571 33,500 -2,700 Descending FlightAware UK
05:34AM 49.1526 -6.3893 116° Southeast 494 568 33,500 3,060 Level FlightAware UK
05:34AM 49.1420 -6.3610 116° Southeast 528 608 35,000  Climbing FlightAware
05:34AM 49.1209 -6.2884 116° Southeast 494 568 33,500 -2,460 Descending FlightAware UK
05:34AM 49.1018 -6.2280 116° Southeast 492 566 33,500 3,420 Level FlightAware UK
05:35AM 49.0950 -6.2130 116° Southeast 531 611 35,000  Climbing FlightAware
05:35AM 49.0761 -6.1472 116° Southeast 494 568 33,500 -2,700 Descending FlightAware UK
05:35AM 49.0567 -6.0865 116° Southeast 494 568 33,500 3,720 Level FlightAware UK
05:35AM 49.0530 -6.0780 116° Southeast 533 613 35,000  Climbing FlightAware
05:36AM 49.0309 -6.0055 116° Southeast 494 568 33,500 -2,520 Descending FlightAware UK
05:36AM 49.0114 -5.9448 116° Southeast 494 568 33,500 3,300 Level FlightAware UK
05:36AM 49.0040 -5.9220 116° Southeast 534 615 35,000  Climbing FlightAware
05:36AM 48.9855 -5.8636 116° Southeast 496 571 33,500 -2,760 Descending FlightAware UK
05:37AM 48.9627 -5.8043 120° Southeast 496 571 33,500 4,500 Level FlightAware UK
05:37AM 48.9630 -5.8100 120° Southeast 532 612 35,000  Climbing FlightAware
05:37AM 48.9404 -5.7459 120° Southeast 498 573 33,500 -2,700 Descending FlightAware UK
05:37AM 48.9183 -5.6875 120° Southeast 498 573 33,500 3,060 Level FlightAware UK
05:37AM 48.9070 -5.6610 120° Southeast 534 615 35,000  Climbing FlightAware
05:38AM 48.8817 -5.5899 120° Southeast 502 578 33,500 -2,460 Descending FlightAware UK
05:38AM 48.8599 -5.5311 119° Southeast 500 575 33,500 3,420 Level FlightAware UK
05:38AM 48.8520 -5.5110 119° Southeast 533 613 35,000  Climbing FlightAware
05:38AM 48.8309 -5.4529 119° Southeast 494 568 33,500  Descending FlightAware UK
05:39AM 48.8050 -5.3870 119° Southeast 534 615 35,000  Climbing FlightAware
05:39AM 48.7803 -5.3161 119° Southeast 498 573 33,500 -2,520 Descending FlightAware UK
05:39AM 48.7586 -5.2574 119° Southeast 500 575 33,500 3,300 Level FlightAware UK
05:39AM 48.7500 -5.2370 119° Southeast 534 615 35,000  Climbing FlightAware
05:40AM 48.7296 -5.1793 119° Southeast 504 580 33,500 -2,760 Descending FlightAware UK
05:40AM 48.7077 -5.1208 119° Southeast 504 580 33,500 3,600 Level FlightAware UK
05:40AM 48.7030 -5.1100 119° Southeast 533 613 35,000  Climbing FlightAware
05:40AM 48.6783 -5.0423 119° Southeast 502 578 33,500 -2,580 Descending FlightAware UK
05:41AM 48.6566 -4.9839 119° Southeast 502 578 33,500 3,900 Level FlightAware UK
05:41AM 48.6530 -4.9780 119° Southeast 530 610 35,000  Climbing FlightAware
05:41AM 48.6275 -4.9065 119° Southeast 500 575 33,500  Descending FlightAware UK
05:42AM 48.5990 -4.8340 119° Southeast 527 606 35,000  Climbing FlightAware
05:42AM 48.5764 -4.7720 119° Southeast 498 573 33,500  Descending FlightAware UK
05:42AM 48.5510 -4.7090 119° Southeast 527 606 35,000  Climbing FlightAware
05:43AM 48.5255 -4.6386 119° Southeast 498 573 33,500  Descending FlightAware UK
05:43AM 48.5030 -4.5820 119° Southeast 527 606 35,000  Climbing FlightAware
05:43AM 48.4747 -4.5053 119° Southeast 496 571 33,500  Descending FlightAware UK
05:43AM 48.4650 -4.4840 119° Southeast 526 605 35,000  Climbing FlightAware
05:44AM 48.4379 -4.4099 119° Southeast 494 568 33,500  Descending FlightAware UK
05:44AM 48.4090 -4.3380 119° Southeast 526 605 35,000  Climbing FlightAware
05:45AM 48.3793 -4.2586 119° Southeast 494 568 33,500  Descending FlightAware UK
05:45AM 48.3610 -4.2120 119° Southeast 526 605 35,000  Climbing FlightAware
05:45AM 48.3206 -4.1073 119° Southeast 498 573 33,500  Descending FlightAware UK
05:45AM 48.3100 -4.0900 119° Southeast 521 600 35,000  Climbing FlightAware
05:46AM 48.2775 -4.0206 119° Southeast 494 568 33,500  Descending FlightAware UK
05:46AM 48.2430 -3.9650 119° Southeast 513 590 35,000 1,380 Climbing FlightAware
05:47AM 48.1800 -3.8600 132° Southeast 513 590 35,000  Level FlightAware
05:48AM 48.1160 -3.7560 133° Southeast 511 588 35,000  Level FlightAware
05:48AM 48.0420 -3.6360 133° Southeast 510 587 35,000  Level FlightAware
05:49AM 47.9780 -3.5330 133° Southeast 512 589 35,000  Level FlightAware
05:49AM 47.9350 -3.4490 127° Southeast 532 612 35,000  Level FlightAware
05:50AM 47.8880 -3.3210 119° Southeast 536 617 35,000  Level FlightAware
05:51AM 47.8380 -3.1890 119° Southeast 536 617 35,000  Level FlightAware
05:51AM 47.7870 -3.0660 122° Southeast 538 619 35,000  Level FlightAware
05:52AM 47.7330 -2.9200 119° Southeast 539 620 35,000  Level FlightAware
05:53AM 47.6840 -2.7910 119° Southeast 540 621 35,000  Level FlightAware
05:54AM 47.6350 -2.6620 119° Southeast 542 624 35,000  Level FlightAware
05:54AM 47.5770 -2.5140 120° Southeast 545 627 35,000  Level FlightAware
05:55AM 47.5340 -2.4040 120° Southeast 547 629 35,000  Level FlightAware
05:56AM 47.4700 -2.2410 120° Southeast 550 633 35,000  Level FlightAware
05:56AM 47.4190 -2.1110 120° Southeast 551 634 35,000  Level FlightAware
05:57AM 47.3690 -1.9840 120° Southeast 552 635 35,000  Level FlightAware
05:58AM 47.3100 -1.8350 120° Southeast 552 635 35,000  Level FlightAware
05:58AM 47.2590 -1.7050 120° Southeast 553 636 35,000  Level FlightAware
05:59AM 47.2010 -1.5590 120° Southeast 553 636 35,000  Level FlightAware
06:00AM 47.1490 -1.4300 121° Southeast 551 634 35,000  Level FlightAware
06:01AM 47.0960 -1.3010 121° Southeast 551 634 35,000  Level FlightAware
06:01AM 47.0370 -1.1540 120° Southeast 551 634 35,000  Level FlightAware
06:02AM 46.9850 -1.0260 121° Southeast 552 635 35,000  Level FlightAware
06:03AM 46.9270 -0.8850 121° Southeast 551 634 35,000  Level FlightAware
06:03AM 46.8750 -0.7610 121° Southeast 550 633 35,000  Level FlightAware
06:04AM 46.8060 -0.5920 121° Southeast 549 632 35,000  Level FlightAware
06:05AM 46.7380 -0.4280 121° Southeast 543 625 35,000  Level FlightAware
06:06AM 46.6780 -0.2870 122° Southeast 545 627 35,000  Level FlightAware
06:07AM 46.6050 -0.1120 121° Southeast 544 626 35,000  Level FlightAware
06:08AM 46.5390 0.0430 122° Southeast 546 628 35,000  Level FlightAware
06:09AM 46.4910 0.2350 110° East 558 642 35,000  Level FlightAware
06:09AM 46.4580 0.3950 107° East 555 639 35,000  Level FlightAware
06:10AM 46.4190 0.5690 108° East 555 639 35,000  Level FlightAware
06:11AM 46.3860 0.7140 108° East 554 638 35,000  Level FlightAware
06:11AM 46.3600 0.8340 107° East 553 636 35,000  Level FlightAware
06:12AM 46.2970 1.0520 113° Southeast 538 619 35,000  Level FlightAware
06:13AM 46.2510 1.1600 122° Southeast 539 620 35,000  Level FlightAware
06:14AM 46.2010 1.2840 120° Southeast 539 620 35,000  Level FlightAware
06:15AM 46.1480 1.4400 116° Southeast 542 624 35,000  Level FlightAware
06:15AM 46.0910 1.5940 118° Southeast 543 625 35,000  Level FlightAware
06:16AM 46.0440 1.7210 118° Southeast 545 627 35,000  Level FlightAware
06:17AM 45.9950 1.8480 119° Southeast 545 627 35,000  Level FlightAware
06:17AM 45.9440 1.9850 118° Southeast 545 627 35,000  Level FlightAware
06:18AM 45.8950 2.1130 119° Southeast 546 628 35,000  Level FlightAware
06:19AM 45.8390 2.2620 118° Southeast 548 631 35,000  Level FlightAware
06:19AM 45.7900 2.3930 118° Southeast 548 631 35,000  Level FlightAware
06:20AM 45.7360 2.5330 119° Southeast 547 629 35,000  Level FlightAware
06:21AM 45.7030 2.6180 119° Southeast 546 628 35,000  Level FlightAware
06:21AM 45.6450 2.7670 119° Southeast 546 628 35,000  Level FlightAware
06:22AM 45.5820 2.9270 119° Southeast 546 628 35,000  Level FlightAware
06:23AM 45.5330 3.0560 118° Southeast 545 627 35,000  Level FlightAware
06:24AM 45.4670 3.2220 120° Southeast 544 626 35,000  Level FlightAware
06:25AM 45.4110 3.3650 119° Southeast 542 624 35,000  Level FlightAware
06:25AM 45.3610 3.4920 119° Southeast 543 625 35,000  Level FlightAware
06:26AM 45.3080 3.6230 120° Southeast 542 624 35,000  Level FlightAware
06:27AM 45.2600 3.7520 118° Southeast 546 628 35,000  Level FlightAware
06:27AM 45.2130 3.8810 117° Southeast 539 620 35,000  Level FlightAware
06:28AM 45.1540 4.0080 123° Southeast 537 618 35,000  Level FlightAware
06:29AM 45.0990 4.1340 122° Southeast 539 620 35,000  Level FlightAware
06:30AM 45.0430 4.2660 121° Southeast 539 620 35,000  Level FlightAware
06:30AM 44.9910 4.3910 120° Southeast 539 620 35,000  Level FlightAware
06:31AM 44.9410 4.5080 121° Southeast 538 619 35,000  Level FlightAware
06:32AM 44.8820 4.6470 121° Southeast 538 619 35,000  Level FlightAware
06:32AM 44.8270 4.7640 124° Southeast 534 615 35,000  Level FlightAware
06:33AM 44.7570 4.8830 130° Southeast 533 613 35,000  Level FlightAware
06:34AM 44.6970 4.9850 130° Southeast 531 611 35,000  Level FlightAware
06:34AM 44.6330 5.0930 130° Southeast 531 611 35,000  Level FlightAware
06:35AM 44.5640 5.2090 130° Southeast 530 610 35,000  Level FlightAware
06:36AM 44.4950 5.3220 131° Southeast 530 610 35,000  Level FlightAware
06:37AM 44.4290 5.4320 130° Southeast 531 611 35,000  Level FlightAware
06:37AM 44.3630 5.5390 131° Southeast 531 611 35,000  Level FlightAware
06:38AM 44.2990 5.6440 130° Southeast 531 611 35,000  Level FlightAware
06:39AM 44.2340 5.7680 126° Southeast 535 616 35,000  Level FlightAware
06:39AM 44.1810 5.8900 121° Southeast 536 617 35,000  Level FlightAware
06:40AM 44.1270 6.0200 120° Southeast 536 617 35,000  Level FlightAware
06:41AM 44.0740 6.1450 121° Southeast 536 617 35,000  Level FlightAware
06:41AM 44.0230 6.2600 122° Southeast 534 615 35,000  Level FlightAware
06:42AM 43.9670 6.3890 121° Southeast 532 612 35,000  Level FlightAware
06:43AM 43.9160 6.5090 121° Southeast 531 611 35,000  Level FlightAware
06:43AM 43.8650 6.6250 121° Southeast 531 611 35,000  Level FlightAware
06:44AM 43.8090 6.7530 121° Southeast 531 611 35,000  Level FlightAware
06:45AM 43.7640 6.8580 121° Southeast 532 612 35,000  Level FlightAware
06:46AM 43.7020 7.0010 121° Southeast 532 612 35,000  Level FlightAware
06:46AM 43.6500 7.1200 121° Southeast 533 613 35,000  Level FlightAware
06:47AM 43.5980 7.2360 122° Southeast 533 613 35,000  Level FlightAware
06:48AM 43.5440 7.3580 121° Southeast 534 615 35,000  Level FlightAware
06:48AM 43.5000 7.4600 121° Southeast 534 615 35,000  Level FlightAware
06:49AM 43.4320 7.6100 122° Southeast 534 615 35,000  Level FlightAware
06:50AM 43.3800 7.7260 122° Southeast 535 616 35,000  Level FlightAware
06:50AM 43.3280 7.8420 122° Southeast 535 616 35,000  Level FlightAware
06:51AM 43.2680 7.9750 122° Southeast 537 618 35,000  Level FlightAware
06:52AM 43.2160 8.0900 122° Southeast 536 617 35,000  Level FlightAware
06:53AM 43.1620 8.2080 122° Southeast 536 617 35,000  Level FlightAware
06:53AM 43.1070 8.3290 122° Southeast 537 618 35,000  Level FlightAware
06:54AM 43.0520 8.4500 122° Southeast 536 617 35,000  Level FlightAware
06:55AM 43.0060 8.5500 122° Southeast 532 612 35,000  Level FlightAware
06:55AM 42.9450 8.6820 122° Southeast 538 619 35,000  Level FlightAware
06:56AM 42.8850 8.8110 122° Southeast 538 619 35,000  Level FlightAware
06:57AM 42.8160 8.9610 122° Southeast 537 618 35,000  Level FlightAware
06:58AM 42.7570 9.0860 123° Southeast 539 620 35,000  Level FlightAware
06:58AM 42.7050 9.1940 123° Southeast 539 620 35,000  Level FlightAware
06:59AM 42.6430 9.3280 122° Southeast 539 620 35,000  Level FlightAware
07:00AM 42.5930 9.4370 122° Southeast 536 617 35,000  Level FlightAware
07:00AM 42.5490 9.5660 115° Southeast 539 620 35,000  Level FlightAware
07:01AM 42.5160 9.6860 110° East 540 621 35,000  Level FlightAware
07:02AM 42.4780 9.8330 109° East 540 621 35,000  Level FlightAware
07:03AM 42.4410 9.9760 109° East 540 621 35,000  Level FlightAware
07:03AM 42.4060 10.1040 110° East 540 621 35,000  Level FlightAware
07:04AM 42.3680 10.2480 110° East 541 623 35,000  Level FlightAware
07:05AM 42.3330 10.3750 110° East 541 623 35,000  Level FlightAware
07:05AM 42.2980 10.4990 111° Southeast 541 623 35,000  Level FlightAware
07:06AM 42.2560 10.6440 111° Southeast 544 626 35,000  Level FlightAware
07:07AM 42.2040 10.7610 121° Southeast 548 631 35,000  Level FlightAware
07:08AM 42.1350 10.8840 127° Southeast 549 632 35,000 120 Level FlightAware
07:08AM 42.0720 10.9910 128° Southeast 548 631 35,200 1,020 Climbing FlightAware
07:09AM 42.0070 11.1060 127° Southeast 537 618 36,500 1,260 Climbing FlightAware
07:10AM 41.9420 11.2180 128° Southeast 535 616 37,000 300 Climbing FlightAware
07:10AM 41.8730 11.3370 128° Southeast 532 612 37,000  Level FlightAware
07:11AM 41.8110 11.4450 128° Southeast 531 611 37,000  Level FlightAware
07:12AM 41.7520 11.5470 128° Southeast 533 613 37,000  Level FlightAware
07:12AM 41.6810 11.6690 128° Southeast 530 610 37,000  Level FlightAware
07:13AM 41.6220 11.7700 128° Southeast 526 605 37,000  Level FlightAware
07:14AM 41.5540 11.8860 128° Southeast 526 605 37,000  Level FlightAware
07:15AM 41.4930 11.9890 128° Southeast 527 606 37,000  Level FlightAware
07:15AM 41.4230 12.1070 128° Southeast 527 606 37,000  Level FlightAware
07:16AM 41.3630 12.2070 129° Southeast 527 606 37,000  Level FlightAware
07:17AM 41.3160 12.2870 128° Southeast 532 612 37,000  Level FlightAware
07:17AM 41.2350 12.4260 128° Southeast 527 606 37,000  Level FlightAware
07:18AM 41.1890 12.5180 124° Southeast 526 605 37,000  Level FlightAware
07:19AM 41.1360 12.6350 121° Southeast 526 605 37,000  Level FlightAware
07:19AM 41.0730 12.7790 120° Southeast 533 613 37,000  Level FlightAware
07:20AM 41.0220 12.8910 121° Southeast 535 616 37,000  Level FlightAware
07:21AM 40.9740 12.9980 121° Southeast 537 618 37,000  Level FlightAware
07:21AM 40.9290 13.0960 121° Southeast 540 621 37,000  Level FlightAware
07:22AM 40.8560 13.2540 121° Southeast 543 625 37,000  Level FlightAware
07:23AM 40.8110 13.3540 121° Southeast 546 628 37,000  Level FlightAware
07:24AM 40.7520 13.4820 121° Southeast 549 632 37,000  Level FlightAware
07:24AM 40.6990 13.5990 121° Southeast 552 635 37,000  Level FlightAware
07:25AM 40.6360 13.7340 122° Southeast 553 636 37,000  Level FlightAware
07:26AM 40.5830 13.8460 122° Southeast 555 639 37,000  Level FlightAware
07:26AM 40.5230 13.9760 121° Southeast 558 642 37,000  Level FlightAware
07:27AM 40.4690 14.0920 121° Southeast 559 643 37,000  Level FlightAware
07:28AM 40.4080 14.2210 122° Southeast 555 639 37,000  Level FlightAware
07:29AM 40.3560 14.3320 122° Southeast 548 631 37,000  Level FlightAware
07:29AM 40.3010 14.4470 122° Southeast 542 624 37,000  Level FlightAware
07:30AM 40.2410 14.5750 122° Southeast 541 623 37,000  Level FlightAware
07:31AM 40.1880 14.6860 122° Southeast 542 624 37,000  Level FlightAware
07:31AM 40.1300 14.8080 122° Southeast 541 623 37,000  Level FlightAware
07:32AM 40.0770 14.9160 123° Southeast 540 621 37,000  Level FlightAware
07:33AM 40.0160 15.0420 122° Southeast 537 618 37,000  Level FlightAware
07:33AM 39.9620 15.1540 122° Southeast 535 616 37,000  Level FlightAware
07:34AM 39.9100 15.2620 122° Southeast 533 613 37,000  Level FlightAware
07:35AM 39.8520 15.3790 123° Southeast 532 612 37,000  Level FlightAware
07:36AM 39.7990 15.4870 123° Southeast 532 612 37,000  Level FlightAware
07:36AM 39.7450 15.5970 123° Southeast 531 611 37,000  Level FlightAware
07:37AM 39.6880 15.7130 123° Southeast 532 612 37,000  Level FlightAware
07:38AM 39.6140 15.8630 123° Southeast 530 610 37,000  Level FlightAware
07:39AM 39.5600 15.9700 123° Southeast 530 610 37,000  Level FlightAware
07:39AM 39.4980 16.0950 123° Southeast 529 609 37,000  Level FlightAware
07:40AM 39.4450 16.2010 123° Southeast 529 609 37,000  Level FlightAware
07:41AM 39.3870 16.3150 123° Southeast 527 606 37,000  Level FlightAware
07:41AM 39.3340 16.4200 123° Southeast 523 602 37,000  Level FlightAware
07:42AM 39.2730 16.5430 123° Southeast 521 600 37,000  Level FlightAware
07:43AM 39.2220 16.6410 124° Southeast 520 598 37,000  Level FlightAware
07:43AM 39.1690 16.7470 123° Southeast 518 596 37,000  Level FlightAware
07:44AM 39.1390 16.8040 124° Southeast 515 593 37,000  Level FlightAware
07:45AM 39.0640 16.9490 124° Southeast 511 588 37,000  Level FlightAware
07:46AM 39.0100 17.0560 123° Southeast 510 587 37,000  Level FlightAware
07:46AM 39.0140 17.0730 73° East 505 581 37,000  Level FlightAware
07:47AM 38.9410 17.3100 112° Southeast 501 577 37,000  Level FlightAware
07:48AM 38.9160 17.4130 107° East 498 573 37,000  Level FlightAware
07:49AM 38.8860 17.5400 107° East 497 572 37,000  Level FlightAware
07:49AM 38.8580 17.6550 107° East 496 571 37,000  Level FlightAware
07:50AM 38.8310 17.7680 107° East 498 573 37,000  Level FlightAware
07:51AM 38.8010 17.8890 108° East 498 573 37,000  Level FlightAware
07:51AM 38.7720 18.0040 108° East 497 572 37,000  Level FlightAware
07:52AM 38.7290 18.1790 107° East 492 566 37,000  Level FlightAware
07:53AM 38.7070 18.2650 108° East 489 563 37,000  Level FlightAware
07:54AM 38.6650 18.4330 108° East 486 559 37,000  Level FlightAware
07:54AM 38.6460 18.5090 108° East 486 559 37,000  Level FlightAware
07:55AM 38.6170 18.6210 108° East 486 559 37,000  Level FlightAware
07:56AM 38.5890 18.7330 108° East 487 560 37,000  Level FlightAware
07:57AM 38.5580 18.8540 108° East 488 562 37,000  Level FlightAware
07:57AM 38.5140 18.9960 112° Southeast 486 559 37,000  Level FlightAware
07:58AM 38.4840 19.0890 112° Southeast 485 558 37,000  Level FlightAware
07:59AM 38.4520 19.1960 111° Southeast 485 558 37,000  Level FlightAware
07:59AM 38.4160 19.3050 113° Southeast 488 562 37,000  Level FlightAware
08:00AM 38.3820 19.4120 112° Southeast 490 564 37,000  Level FlightAware
08:01AM 38.3490 19.5170 112° Southeast 490 564 37,000  Level FlightAware
08:01AM 38.3150 19.6230 112° Southeast 490 564 37,000  Level FlightAware
08:02AM 38.2790 19.7360 112° Southeast 492 566 37,000  Level FlightAware
08:03AM 38.2450 19.8400 113° Southeast 492 566 37,000  Level FlightAware
08:03AM 38.2100 19.9500 112° Southeast 491 565 37,000  Level FlightAware
08:04AM 38.1830 20.0340 112° Southeast 491 565 37,000  Level FlightAware
08:05AM 38.1540 20.1250 112° Southeast 491 565 37,000  Level FlightAware
08:05AM 38.1250 20.2160 112° Southeast 491 565 37,000  Level FlightAware
08:06AM 38.0890 20.3300 112° Southeast 491 565 37,000  Level FlightAware
08:07AM 38.0600 20.4210 112° Southeast 491 565 37,000  Level FlightAware
08:07AM 38.0310 20.5120 112° Southeast 491 565 37,000  Level FlightAware
08:08AM 38.0020 20.6030 112° Southeast 491 565 37,000 540 Level FlightAware
08:11AM 37.8699 20.9975 113° Southeast  Level Estimated
08:11AM 37.7540 21.1590 113° Southeast 490 564 39,000  Level FlightAware
08:12AM 37.6830 21.3020 122° Southeast 489 563 39,000  Level FlightAware
08:13AM 37.6310 21.4050 122° Southeast 489 563 39,000  Level FlightAware
08:13AM 37.5830 21.5010 122° Southeast 490 564 39,000  Level FlightAware
08:14AM 37.5280 21.6100 122° Southeast 491 565 39,000  Level FlightAware
08:15AM 37.4840 21.6970 122° Southeast 492 566 39,000  Level FlightAware
08:15AM 37.4250 21.8150 122° Southeast 493 567 39,000  Level FlightAware
08:16AM 37.3770 21.9070 123° Southeast 494 568 39,000  Level FlightAware
08:17AM 37.3220 22.0160 122° Southeast 493 567 39,000  Level FlightAware
08:17AM 37.2760 22.1070 122° Southeast 493 567 39,000  Level FlightAware
08:18AM 37.2290 22.1990 123° Southeast 493 567 39,000  Level FlightAware
08:19AM 37.1700 22.3140 123° Southeast 492 566 39,000  Level FlightAware
08:19AM 37.1250 22.4030 122° Southeast 492 566 39,000  Level FlightAware
08:20AM 37.0630 22.5220 123° Southeast 491 565 39,000  Level FlightAware
08:21AM 37.0270 22.5910 123° Southeast 490 564 39,000  Level FlightAware
08:22AM 36.9850 22.6720 123° Southeast 490 564 39,000  Level FlightAware
08:22AM 36.9170 22.8050 123° Southeast 490 564 39,000  Level FlightAware
08:23AM 36.8590 22.9150 123° Southeast 490 564 39,000  Level FlightAware
08:24AM 36.8030 23.0230 123° Southeast 489 563 39,000  Level FlightAware
08:24AM 36.7580 23.1080 123° Southeast 487 560 39,000  Level FlightAware
08:25AM 36.6960 23.2270 123° Southeast 485 558 39,000  Level FlightAware
08:26AM 36.6340 23.3460 123° Southeast 484 557 39,000  Level FlightAware
08:27AM 36.5690 23.4700 123° Southeast 485 558 39,000  Level FlightAware
08:28AM 36.5070 23.5830 124° Southeast 485 558 39,000  Level FlightAware
08:28AM 36.4630 23.6670 123° Southeast 486 559 39,000  Level FlightAware
08:29AM 36.4110 23.7650 123° Southeast 486 559 39,000  Level FlightAware
08:30AM 36.3580 23.8640 124° Southeast 480 552 39,000  Level FlightAware
08:31AM 36.3100 23.9520 124° Southeast 479 551 39,000  Level FlightAware
08:31AM 36.2550 24.0530 124° Southeast 478 550 39,000  Level FlightAware
08:32AM 36.2030 24.1520 123° Southeast 477 549 39,000  Level FlightAware
08:33AM 36.1460 24.2580 124° Southeast 477 549 39,000  Level FlightAware
08:33AM 36.0970 24.3470 124° Southeast 477 549 39,000  Level FlightAware
08:34AM 36.0470 24.4380 124° Southeast 478 550 39,000  Level FlightAware
08:35AM 35.9920 24.5390 124° Southeast 477 549 39,000  Level FlightAware
08:35AM 35.9400 24.6350 124° Southeast 477 549 39,000  Level FlightAware
08:36AM 35.8840 24.7370 124° Southeast 484 557 39,000  Level FlightAware
08:37AM 35.8350 24.8260 124° Southeast 485 558 39,000  Level FlightAware
08:38AM 35.7770 24.9320 124° Southeast 489 563 39,000  Level FlightAware
08:38AM 35.7260 25.0220 125° Southeast 490 564 39,000  Level FlightAware
08:39AM 35.6670 25.1280 124° Southeast 490 564 39,000  Level FlightAware
08:40AM 35.6160 25.2210 124° Southeast 492 566 39,000  Level FlightAware
08:40AM 35.5640 25.3140 124° Southeast 492 566 39,000  Level FlightAware
08:41AM 35.5060 25.4170 125° Southeast 492 566 39,000  Level FlightAware
08:42AM 35.4520 25.5120 125° Southeast 491 565 39,000  Level FlightAware
08:43AM 35.3940 25.6160 124° Southeast 490 564 39,000  Level FlightAware
08:43AM 35.3410 25.7100 125° Southeast 490 564 39,000  Level FlightAware
08:44AM 35.2880 25.8040 125° Southeast 490 564 39,000  Level FlightAware
08:45AM 35.2310 25.9050 125° Southeast 489 563 39,000  Level FlightAware
08:45AM 35.1790 25.9950 125° Southeast 489 563 39,000  Level FlightAware
08:46AM 35.1190 26.1000 125° Southeast 490 564 39,000  Level FlightAware
08:47AM 35.0680 26.1970 123° Southeast 494 568 39,000  Level FlightAware
08:47AM 35.0320 26.2970 114° Southeast 498 573 39,000  Level FlightAware
08:48AM 34.9940 26.4130 112° Southeast 498 573 39,000  Level FlightAware
08:49AM 34.9540 26.5430 111° Southeast 497 572 39,000  Level FlightAware
08:50AM 34.9100 26.6740 112° Southeast 497 572 39,000  Level FlightAware
08:51AM 34.8830 26.7630 110° East 497 572 39,000  Level FlightAware
08:51AM 34.8250 26.9200 114° Southeast 494 568 39,000  Level FlightAware
08:52AM 34.7940 27.0110 113° Southeast 494 568 39,000  Level FlightAware
08:53AM 34.7570 27.1230 112° Southeast 494 568 39,000  Level FlightAware
08:53AM 34.7300 27.2120 110° East 494 568 39,000  Level FlightAware
08:54AM 34.7020 27.3000 111° Southeast 494 568 39,000  Level FlightAware
08:55AM 34.6740 27.3880 111° Southeast 494 568 39,000  Level FlightAware
08:55AM 34.6460 27.4760 111° Southeast 494 568 39,000  Level FlightAware
08:56AM 34.6110 27.5860 111° Southeast 494 568 39,000  Level FlightAware
08:57AM 34.5830 27.6750 111° Southeast 494 568 39,000  Level FlightAware
08:58AM 34.5140 27.8910 111° Southeast 39,000  Level FlightAware
08:58AM 34.4900 27.9990 105° East 493 567 39,000  Level FlightAware
08:59AM 34.4700 28.0890 105° East 493 567 39,000  Level FlightAware
09:00AM 34.4500 28.1800 105° East 493 567 39,000  Level FlightAware
09:00AM 34.4300 28.2710 105° East 493 567 39,000  Level FlightAware
09:01AM 34.4100 28.3620 105° East 493 567 39,000  Level FlightAware
09:02AM 34.3400 28.5730 112° Southeast 492 566 39,000  Level FlightAware
09:03AM 34.3130 28.6780 107° East 491 565 39,000  Level FlightAware
09:03AM 34.2820 28.7960 108° East 492 566 39,000  Level FlightAware
09:04AM 34.2610 28.8780 107° East 493 567 39,000  Level FlightAware
09:05AM 34.2330 28.9880 107° East 493 567 39,000  Level FlightAware
09:05AM 34.2110 29.0770 107° East 493 567 39,000  Level FlightAware
09:06AM 34.1880 29.1670 107° East 493 567 39,000  Level FlightAware
09:07AM 34.1390 29.3430 109° East 490 564 39,000  Level FlightAware
09:07AM 34.1130 29.4390 108° East 490 564 39,000  Level FlightAware
09:08AM 34.0940 29.5150 107° East 490 564 39,000  Level FlightAware
09:09AM 34.0690 29.6100 108° East 490 564 39,000  Level FlightAware
09:09AM 34.0410 29.7090 109° East 490 564 39,000  Level FlightAware
09:10AM 34.0160 29.8010 108° East 491 565 39,000  Level FlightAware
09:10AM 33.9860 29.9110 108° East 493 567 39,000  Level FlightAware
09:11AM 33.9540 30.0290 108° East 494 568 39,000  Level FlightAware
09:12AM 33.9250 30.1360 108° East 494 568 39,000  Level FlightAware
09:13AM 33.8950 30.2470 108° East 495 570 39,000  Level FlightAware
09:13AM 33.8640 30.3600 108° East 495 570 39,000  Level FlightAware
09:14AM 33.8360 30.4570 109° East 495 570 39,000  Level FlightAware
09:15AM 33.7810 30.6560 108° East 496 571 39,000  Level FlightAware
09:17AM 33.7230 30.8660 108° East 494 568 39,000  Level FlightAware
09:17AM 33.6960 30.9600 109° East 493 567 39,000  Level FlightAware
09:18AM 33.6610 31.0850 109° East 495 570 39,000  Level FlightAware
09:19AM 33.6230 31.2200 109° East 492 566 39,000  Level FlightAware
09:19AM 33.5930 31.3240 109° East 495 570 39,000  Level FlightAware
09:20AM 33.5570 31.4510 109° East 496 571 39,000  Level FlightAware
09:21AM 33.5260 31.5580 109° East 496 571 39,000  Level FlightAware
09:22AM 33.4920 31.6770 109° East 496 571 39,000  Level FlightAware
09:22AM 33.4620 31.7810 109° East 497 572 39,000  Level FlightAware
09:23AM 33.4280 31.8980 109° East 497 572 39,000  Level FlightAware
09:24AM 33.3970 32.0050 109° East 498 573 39,000  Level FlightAware
09:24AM 33.3670 32.1060 110° East 498 573 39,000  Level FlightAware
09:25AM 33.3330 32.2230 109° East 498 573 39,000  Level FlightAware
09:26AM 33.3010 32.3290 110° East 496 571 39,000  Level FlightAware
09:27AM 33.2670 32.4460 109° East 496 571 39,000 -300 Level FlightAware
09:27AM 33.2370 32.5490 109° East 494 568 38,600 -1,140 Descending FlightAware
09:28AM 33.2040 32.6580 110° East 497 572 37,500 -1,680 Descending FlightAware
09:30AM 33.1280 32.9060 110° East 500 575 34,700 -1,800 Descending FlightAware
09:30AM 33.0860 33.0050 117° Southeast 487 560 33,300 -2,580 Descending FlightAware
09:31AM 33.0210 33.1320 121° Southeast 483 556 30,700 -2,700 Descending FlightAware
09:32AM 32.9670 33.2370 121° Southeast 471 542 28,800 -2,520 Descending FlightAware
09:33AM 32.9200 33.3290 121° Southeast 457 526 27,200 -2,340 Descending FlightAware
09:33AM 32.8710 33.4230 122° Southeast 441 507 25,500 -2,220 Descending FlightAware
09:34AM 32.8310 33.4990 122° Southeast 430 495 24,100 -2,280 Descending FlightAware
09:35AM 32.7890 33.5820 121° Southeast 419 482 22,500 -2,280 Descending FlightAware
09:35AM 32.7440 33.6670 122° Southeast 410 472 20,900 -2,220 Descending FlightAware
09:36AM 32.7030 33.7470 121° Southeast 400 460 19,400 -2,160 Descending FlightAware
09:37AM 32.6620 33.8240 122° Southeast 389 448 17,900 -2,100 Descending FlightAware
09:38AM 32.6230 33.8980 122° Southeast 379 436 16,500 -2,100 Descending FlightAware
09:38AM 32.5930 33.9560 122° Southeast 373 429 15,300 -2,100 Descending FlightAware
09:39AM 32.5450 34.0460 122° Southeast 360 414 13,600 -2,040 Descending FlightAware
09:40AM 32.5110 34.1100 122° Southeast 353 406 12,300 -1,920 Descending FlightAware
09:40AM 32.4680 34.1810 126° Southeast 338 389 10,900 -1,140 Descending FlightAware
09:41AM 32.4130 34.2460 135° Southeast 322 371 10,400 -360 Descending FlightAware
09:42AM 32.3780 34.2900 133° Southeast 322 371 10,400 -1,200 Level FlightAware
09:42AM 32.3460 34.3230 139° Southeast 277 319 9,000 -1,920 Descending FlightAware
09:43AM 32.3170 34.3580 134° Southeast 277 319 8,500 -600 Descending FlightAware
09:44AM 32.2880 34.3920 135° Southeast 277 319 8,400 -120 Descending FlightAware
09:44AM 32.2730 34.4100 135° Southeast 277 319 8,400  Level FlightAware
09:44AM 32.2570 34.4280 136° Southeast 277 319 8,400  Level FlightAware
09:45AM 32.2420 34.4460 135° Southeast 277 319 8,400  Level FlightAware
09:45AM 32.2190 34.4740 134° Southeast 277 319 8,400 -780 Level FlightAware
09:48AM 32.0366 34.8179 131° Southeast  Level FlightAware Approximate
09:49AM 32.0000 34.8667 131° Southeast  Level FlightAware Approximate
09:50AM 32.0095 34.8769 131° Southeast  Level Estimated
09:51AM 32.0095 34.8769 131° Southeast  Level Estimated
09:52AM 32.0095 34.8769 131° Southeast  Level Estimated
09:52AM 31.9800 34.9250 131° Southeast 179 206 2,800  Level FlightAware
09:53AM 31.9880 34.9610 75° East 177 204 2,500 -540 Descending FlightAware
09:56AM 32.0095 34.8769 287° West  Level Estimated